Cape Med — 3EFC3 — position and weather

sailwx.info

Track history (hours):
 
Tides and Currents Weather Stations Pressure Air Temp Water Temp Dewpoint Dewpoint Depression Visibility Wind Speed Wind Dir Waves Ship Positions

Cape Med

Last reported at 2018-Jan-05 03:37 UTC. Time now 2018-Jul-20 10:49 UTC.
Position N 33°57' E 129°59'.
Warning: this ship's position is months out of date.

Length 290 m; draft 9.2 m.

Type: Cargo ship. MMSI: 371995000.

Date/timePositionNaut miles runAvg speedWind from/ knotsBaromVisibWave heightAir tempDewpointWater temp
2018-Jan-05 03:37N 33°57' E 129°59'213.5
2018-Jan-05 03:28N 33°58' E 130°02'613.7
2018-Jan-05 03:00N 33°59' E 130°09'713.4
2018-Jan-05 02:30N 33°60' E 130°17'713.8
2018-Jan-05 02:01N 34°01' E 130°26'713.8
2018-Jan-05 01:30N 34°02' E 130°34'713.7
2018-Jan-05 01:00N 34°04' E 130°42'713.8
2018-Jan-05 00:30N 34°02' E 130°50'5 9.6
2018-Jan-05 00:00N 33°57' E 130°52'4 7.5
2018-Jan-04 23:30N 33°55' E 130°56'5 9.1
2018-Jan-04 23:00N 33°59' E 130°59'4 8.6
2018-Jan-04 22:30N 33°56' E 131°04'3 6.3
2018-Jan-04 22:00N 33°55' E 131°07'4 7.1
2018-Jan-04 21:30N 33°52' E 131°10'3 6.2
2018-Jan-04 21:00N 33°50' E 131°12'3 5.8
2018-Jan-04 20:30N 33°47' E 131°13'0 0.1
2018-Jan-04 19:55N 33°47' E 131°13'0 0.0
2018-Jan-04 19:25N 33°47' E 131°13'0 0.1
2018-Jan-04 18:55N 33°47' E 131°13'0 0.0
2018-Jan-04 18:22N 33°47' E 131°13'0 0.0
2018-Jan-04 17:55N 33°47' E 131°13'0 0.0
2018-Jan-04 17:25N 33°47' E 131°13'0 0.0
2018-Jan-04 16:55N 33°47' E 131°13'0 0.0
2018-Jan-04 16:25N 33°47' E 131°13'0 0.0
2018-Jan-04 15:58N 33°47' E 131°13'0 0.1
2018-Jan-04 15:25N 33°47' E 131°13'0 0.4
2018-Jan-04 14:55N 33°47' E 131°13'0 0.2
2018-Jan-04 14:28N 33°47' E 131°13'0 0.1
2018-Jan-04 13:55N 33°47' E 131°13'0 0.0
2018-Jan-04 13:25N 33°47' E 131°13'0 0.1
2018-Jan-04 12:58N 33°47' E 131°13'0 0.0
2018-Jan-04 12:25N 33°47' E 131°13'0 0.0
2018-Jan-04 11:55N 33°47' E 131°13'1 2.2
2018-Jan-04 11:30N 33°47' E 131°14'511.0
2018-Jan-04 11:01N 33°47' E 131°20'714.1
2018-Jan-04 10:31N 33°47' E 131°29'815.0
2018-Jan-04 10:00N 33°47' E 131°38'714.9
2018-Jan-04 09:30N 33°46' E 131°47'714.8
2018-Jan-04 09:01N 33°44' E 131°55'814.9
2018-Jan-04 08:29N 33°42' E 132°05'714.6
2018-Jan-04 07:59N 33°43' E 132°13'915.4
2018-Jan-04 07:25N 33°46' E 132°23'615.6
2018-Jan-04 07:00N 33°49' E 132°30'815.7
2018-Jan-04 06:30N 33°54' E 132°37'815.6
2018-Jan-04 06:00N 33°60' E 132°44'  
2017-Dec-29 05:51N 34°24' E 134°15'513.0
2017-Dec-29 05:29N 34°25' E 134°20'612.9
2017-Dec-29 05:01N 34°27' E 134°27'612.9
2017-Dec-29 04:31N 34°29' E 134°35'612.7
2017-Dec-29 04:01N 34°31' E 134°42'612.4
2017-Dec-29 03:31N 34°34' E 134°49'510.9
2017-Dec-29 03:00N 34°36' E 134°55'510.1
2017-Dec-29 02:30N 34°38' E 135°01'4 8.9
2017-Dec-29 02:01N 34°35' E 135°05'3 6.4
2017-Dec-29 01:31N 34°33' E 135°08'510.5
2017-Dec-29 01:01N 34°28' E 135°06'611.1
2017-Dec-29 00:31N 34°23' E 135°03'510.5
2017-Dec-29 00:01N 34°19' E 135°00'510.1
2017-Dec-28 23:30N 34°14' E 134°59'5 9.2
2017-Dec-28 23:00N 34°09' E 134°60'4 8.8
2017-Dec-28 22:31N 34°05' E 134°59'3 6.2
2017-Dec-28 22:01N 34°02' E 134°59'3 5.5
2017-Dec-28 21:30N 33°59' E 134°59'4 8.5
2017-Dec-28 21:01N 33°55' E 134°58'5 9.0
2017-Dec-28 20:30N 33°50' E 134°57'4 8.5
2017-Dec-28 20:01N 33°46' E 134°57'4 8.0
2017-Dec-28 19:31N 33°42' E 134°57'3 4.8
2017-Dec-28 18:56N 33°39' E 134°56'  
Track history (hours):
 
Tides and Currents Weather Stations Pressure Air Temp Water Temp Dewpoint Dewpoint Depression Visibility Wind Speed Wind Dir Waves Ship Positions

Cape Med

Last reported at 2018-Jan-05 03:37 UTC. Time now 2018-Jul-20 10:49 UTC.
Position N 33°57' E 129°59'.
Warning: this ship's position is months out of date.

Length 290 m; draft 9.2 m.

Type: Cargo ship. MMSI: 371995000.

Date/timePositionNaut miles runAvg speedWind from/ knotsBaromVisibWave heightAir tempDewpointWater temp
2018-Jan-05 03:37N 33°57' E 129°59'213.5
2018-Jan-05 03:28N 33°58' E 130°02'613.7
2018-Jan-05 03:00N 33°59' E 130°09'713.4
2018-Jan-05 02:30N 33°60' E 130°17'713.8
2018-Jan-05 02:01N 34°01' E 130°26'713.8
2018-Jan-05 01:30N 34°02' E 130°34'713.7
2018-Jan-05 01:00N 34°04' E 130°42'713.8
2018-Jan-05 00:30N 34°02' E 130°50'5 9.6
2018-Jan-05 00:00N 33°57' E 130°52'4 7.5
2018-Jan-04 23:30N 33°55' E 130°56'5 9.1
2018-Jan-04 23:00N 33°59' E 130°59'4 8.6
2018-Jan-04 22:30N 33°56' E 131°04'3 6.3
2018-Jan-04 22:00N 33°55' E 131°07'4 7.1
2018-Jan-04 21:30N 33°52' E 131°10'3 6.2
2018-Jan-04 21:00N 33°50' E 131°12'3 5.8
2018-Jan-04 20:30N 33°47' E 131°13'0 0.1
2018-Jan-04 19:55N 33°47' E 131°13'0 0.0
2018-Jan-04 19:25N 33°47' E 131°13'0 0.1
2018-Jan-04 18:55N 33°47' E 131°13'0 0.0
2018-Jan-04 18:22N 33°47' E 131°13'0 0.0
2018-Jan-04 17:55N 33°47' E 131°13'0 0.0
2018-Jan-04 17:25N 33°47' E 131°13'0 0.0
2018-Jan-04 16:55N 33°47' E 131°13'0 0.0
2018-Jan-04 16:25N 33°47' E 131°13'0 0.0
2018-Jan-04 15:58N 33°47' E 131°13'0 0.1
2018-Jan-04 15:25N 33°47' E 131°13'0 0.4
2018-Jan-04 14:55N 33°47' E 131°13'0 0.2
2018-Jan-04 14:28N 33°47' E 131°13'0 0.1
2018-Jan-04 13:55N 33°47' E 131°13'0 0.0
2018-Jan-04 13:25N 33°47' E 131°13'0 0.1
2018-Jan-04 12:58N 33°47' E 131°13'0 0.0
2018-Jan-04 12:25N 33°47' E 131°13'0 0.0
2018-Jan-04 11:55N 33°47' E 131°13'1 2.2
2018-Jan-04 11:30N 33°47' E 131°14'511.0
2018-Jan-04 11:01N 33°47' E 131°20'714.1
2018-Jan-04 10:31N 33°47' E 131°29'815.0
2018-Jan-04 10:00N 33°47' E 131°38'714.9
2018-Jan-04 09:30N 33°46' E 131°47'714.8
2018-Jan-04 09:01N 33°44' E 131°55'814.9
2018-Jan-04 08:29N 33°42' E 132°05'714.6
2018-Jan-04 07:59N 33°43' E 132°13'915.4
2018-Jan-04 07:25N 33°46' E 132°23'615.6
2018-Jan-04 07:00N 33°49' E 132°30'815.7
2018-Jan-04 06:30N 33°54' E 132°37'815.6
2018-Jan-04 06:00N 33°60' E 132°44'  
2017-Dec-29 05:51N 34°24' E 134°15'513.0
2017-Dec-29 05:29N 34°25' E 134°20'612.9
2017-Dec-29 05:01N 34°27' E 134°27'612.9
2017-Dec-29 04:31N 34°29' E 134°35'612.7
2017-Dec-29 04:01N 34°31' E 134°42'612.4
2017-Dec-29 03:31N 34°34' E 134°49'510.9
2017-Dec-29 03:00N 34°36' E 134°55'510.1
2017-Dec-29 02:30N 34°38' E 135°01'4 8.9
2017-Dec-29 02:01N 34°35' E 135°05'3 6.4
2017-Dec-29 01:31N 34°33' E 135°08'510.5
2017-Dec-29 01:01N 34°28' E 135°06'611.1
2017-Dec-29 00:31N 34°23' E 135°03'510.5
2017-Dec-29 00:01N 34°19' E 135°00'510.1
2017-Dec-28 23:30N 34°14' E 134°59'5 9.2
2017-Dec-28 23:00N 34°09' E 134°60'4 8.8
2017-Dec-28 22:31N 34°05' E 134°59'3 6.2
2017-Dec-28 22:01N 34°02' E 134°59'3 5.5
2017-Dec-28 21:30N 33°59' E 134°59'4 8.5
2017-Dec-28 21:01N 33°55' E 134°58'5 9.0
2017-Dec-28 20:30N 33°50' E 134°57'4 8.5
2017-Dec-28 20:01N 33°46' E 134°57'4 8.0
2017-Dec-28 19:31N 33°42' E 134°57'3 4.8
2017-Dec-28 18:56N 33°39' E 134°56'  

Dump ship's entire track history